createdAt,value
2023-04-12T05:27:52.100Z,0.95
2023-04-12T05:32:54.396Z,1.00
2023-04-12T05:37:56.442Z,0.93
2023-04-12T05:42:58.028Z,1.00
2023-04-12T05:47:59.898Z,1.00
2023-04-12T05:53:01.852Z,0.88
2023-04-12T05:58:03.520Z,1.00
2023-04-12T06:03:05.979Z,1.55
2023-04-12T06:08:08.604Z,1.05
2023-04-12T06:13:10.150Z,1.00
2023-04-12T06:18:13.046Z,1.00
2023-04-12T06:23:14.562Z,1.20
2023-04-12T06:28:19.138Z,0.90
2023-04-12T06:33:23.575Z,1.00
2023-04-12T06:38:25.614Z,0.95
2023-04-12T06:43:27.353Z,1.33
2023-04-12T06:48:29.949Z,1.10
2023-04-12T06:53:31.705Z,1.00
2023-04-12T06:58:33.453Z,1.10
2023-04-12T07:03:35.711Z,2.35
2023-04-12T07:08:37.408Z,1.30
2023-04-12T07:13:38.938Z,1.50
2023-04-12T07:18:40.483Z,1.13
2023-04-12T07:23:41.966Z,1.13
2023-04-12T07:28:43.670Z,0.98
2023-04-12T07:33:45.497Z,1.20
2023-04-12T07:38:47.766Z,1.30
2023-04-12T07:43:49.866Z,1.60
2023-04-12T07:48:51.463Z,1.67
2023-04-12T07:53:53.550Z,1.52
2023-04-12T07:58:55.471Z,1.45
2023-04-12T08:03:57.517Z,1.73
2023-04-12T08:08:59.289Z,1.10
2023-04-12T08:14:01.394Z,1.50
2023-04-12T08:19:03.359Z,1.80
2023-04-12T08:24:05.456Z,2.05
2023-04-12T08:29:07.361Z,1.48
2023-04-12T08:34:08.797Z,2.03
2023-04-12T08:39:10.722Z,1.80
2023-04-12T08:44:12.770Z,1.80
2023-04-12T08:49:16.867Z,1.88
2023-04-12T08:54:18.508Z,1.30
2023-04-12T08:59:20.639Z,1.52
2023-04-12T09:04:23.685Z,1.77
2023-04-12T09:09:48.009Z,1.80
2023-04-12T09:15:08.862Z,1.58
2023-04-12T09:20:16.485Z,1.52
2023-04-12T09:25:18.236Z,2.47
2023-04-12T09:30:20.880Z,1.85
2023-04-12T09:35:35.071Z,2.17
2023-04-12T09:40:37.554Z,1.98
2023-04-12T09:45:40.056Z,1.30
2023-04-12T09:50:42.136Z,1.50
2023-04-12T09:55:44.129Z,1.13
2023-04-12T10:00:46.884Z,1.38
2023-04-12T10:05:48.987Z,1.42
2023-04-12T10:10:53.945Z,1.85
2023-04-12T10:15:55.690Z,1.73
2023-04-12T10:20:59.364Z,0.70
2023-04-12T10:26:05.063Z,0.75
2023-04-12T10:31:33.162Z,0.80
2023-04-12T10:36:55.132Z,0.75
2023-04-12T10:42:27.348Z,1.00
2023-04-12T10:47:47.888Z,0.60
2023-04-12T10:53:13.004Z,0.90
2023-04-12T10:58:49.374Z,0.52
2023-04-12T11:04:20.312Z,0.47
2023-04-12T11:09:30.026Z,0.63
2023-04-12T11:14:49.248Z,0.60
2023-04-12T11:19:57.717Z,0.65
2023-04-12T11:25:01.949Z,0.70
2023-04-12T11:30:04.211Z,0.52
2023-04-12T11:35:06.230Z,0.50
2023-04-12T11:40:09.501Z,0.52
2023-04-12T11:45:15.906Z,0.70
2023-04-12T11:50:31.169Z,0.50
2023-04-12T11:55:32.778Z,0.40
2023-04-12T12:00:34.610Z,0.38
2023-04-12T12:05:38.462Z,0.40
2023-04-12T12:10:55.511Z,0.60
2023-04-12T12:16:02.048Z,0.40
2023-04-12T12:21:03.809Z,0.40
2023-04-12T12:26:18.943Z,0.40
2023-04-12T12:31:24.758Z,0.40
2023-04-12T12:36:34.551Z,0.70
2023-04-12T12:41:36.637Z,0.40
2023-04-12T12:51:43.023Z,0.40
2023-04-12T12:56:45.053Z,0.65
2023-04-12T13:01:46.669Z,0.70
2023-04-12T13:06:48.234Z,1.50
2023-04-12T13:11:49.785Z,0.82
2023-04-12T13:16:51.439Z,0.40
2023-04-12T13:21:53.332Z,0.35
2023-04-12T13:26:55.054Z,0.40
2023-04-12T13:31:56.656Z,0.57
2023-04-12T13:36:59.028Z,0.32
2023-04-12T13:42:02.361Z,1.33
2023-04-12T13:47:04.714Z,0.43
2023-04-12T13:52:06.545Z,0.40
2023-04-12T13:57:08.219Z,0.40
2023-04-12T14:02:09.964Z,0.50
2023-04-12T14:07:12.814Z,0.40
2023-04-12T14:12:14.741Z,0.63
2023-04-12T14:17:16.234Z,0.50
2023-04-12T14:22:17.757Z,0.93
2023-04-12T14:27:19.349Z,1.52
2023-04-12T14:32:21.055Z,0.50
2023-04-12T14:37:22.692Z,0.40
2023-04-12T14:42:24.307Z,0.82
2023-04-12T14:47:26.108Z,1.08
2023-04-12T14:52:28.341Z,0.60
2023-04-12T14:57:30.299Z,0.80
2023-04-12T15:02:32.456Z,0.60
2023-04-12T15:07:35.077Z,0.80
2023-04-12T15:12:37.445Z,1.00
2023-04-12T15:17:39.038Z,0.70
2023-04-12T15:22:41.010Z,1.48
2023-04-12T15:27:44.212Z,2.30
2023-04-12T15:32:47.014Z,0.85
2023-04-12T15:37:48.526Z,0.77
2023-04-12T15:42:50.030Z,0.90
2023-04-12T15:47:52.251Z,1.10
2023-04-12T15:52:55.464Z,0.68
2023-04-12T15:57:59.659Z,0.70
2023-04-12T16:03:01.957Z,0.95
2023-04-12T16:08:04.114Z,0.40
2023-04-12T16:13:06.586Z,0.75
2023-04-12T16:18:09.158Z,0.60
2023-04-12T16:23:11.535Z,0.40
2023-04-12T16:28:14.482Z,1.40
2023-04-12T16:33:15.988Z,0.80
2023-04-12T16:38:17.889Z,0.90
2023-04-12T16:43:19.496Z,0.50
2023-04-12T16:48:22.841Z,0.52
2023-04-12T16:53:24.703Z,0.52
2023-04-12T16:58:26.464Z,0.28
2023-04-12T17:03:28.260Z,0.50
2023-04-12T17:08:29.850Z,0.30
2023-04-12T17:13:31.447Z,0.70
2023-04-12T17:18:34.623Z,1.42
2023-04-12T17:23:39.171Z,0.40
2023-04-12T17:28:41.601Z,0.47
2023-04-12T17:33:43.784Z,1.15
2023-04-12T17:38:45.670Z,1.10
2023-04-12T17:43:47.251Z,0.82
2023-04-12T17:48:48.757Z,0.47
2023-04-12T17:53:50.676Z,1.50
2023-04-12T17:58:52.586Z,1.17
2023-04-12T18:03:54.831Z,1.77
2023-04-12T18:08:58.880Z,0.80
2023-04-12T18:14:00.516Z,0.80
2023-04-12T18:19:03.233Z,0.80
2023-04-12T18:24:06.077Z,1.35
2023-04-12T18:29:08.015Z,0.68
2023-04-12T18:34:09.747Z,1.20
2023-04-12T18:39:11.634Z,1.48
2023-04-12T18:44:13.346Z,1.75
2023-04-12T18:49:16.401Z,1.60
2023-04-12T18:54:17.956Z,1.08
2023-04-12T18:59:19.634Z,0.80
2023-04-12T19:04:21.265Z,1.10
2023-04-12T19:09:22.736Z,0.60
2023-04-12T19:14:25.316Z,0.50
2023-04-12T19:19:26.747Z,0.47
2023-04-12T19:24:28.400Z,0.52
2023-04-12T19:29:30.305Z,0.40
2023-04-12T19:34:31.908Z,0.60
2023-04-12T19:39:33.528Z,0.65
2023-04-12T19:44:35.013Z,0.50
2023-04-12T19:49:37.573Z,0.32
2023-04-12T19:54:39.536Z,0.20
2023-04-12T19:59:40.989Z,0.30
2023-04-12T20:04:42.450Z,0.40
2023-04-12T20:09:44.800Z,0.47
2023-04-12T20:14:46.720Z,0.50
2023-04-12T20:19:48.489Z,0.47
2023-04-12T20:24:50.618Z,0.40
2023-04-12T20:29:53.379Z,0.30
2023-04-12T20:34:55.514Z,0.40
2023-04-12T20:39:56.905Z,0.70
2023-04-12T20:44:58.577Z,0.50
2023-04-12T20:50:00.349Z,0.65
2023-04-12T20:55:02.694Z,0.77
2023-04-12T21:00:12.729Z,0.65
2023-04-12T21:05:16.896Z,0.63
2023-04-12T21:10:18.866Z,0.60
2023-04-12T21:15:22.191Z,0.50
2023-04-12T21:20:24.703Z,0.50
2023-04-12T21:25:26.256Z,0.60
2023-04-12T21:30:27.725Z,0.50
2023-04-12T21:35:30.532Z,0.70
2023-04-12T21:40:32.132Z,0.88
2023-04-12T21:45:33.950Z,0.60
2023-04-12T21:50:35.681Z,0.60
2023-04-12T21:55:37.235Z,0.70
2023-04-12T22:00:38.957Z,0.65
2023-04-12T22:05:40.573Z,0.55
2023-04-12T22:10:42.606Z,0.98
2023-04-12T22:15:44.168Z,0.52
2023-04-12T22:20:46.325Z,0.65
2023-04-12T22:25:49.525Z,0.60
2023-04-12T22:30:51.630Z,0.65
2023-04-12T22:35:53.046Z,0.70
2023-04-12T22:41:02.209Z,0.80
2023-04-12T22:46:05.950Z,0.55
2023-04-12T22:51:08.417Z,0.55
2023-04-12T22:56:10.281Z,0.63
2023-04-12T23:01:12.238Z,0.50
2023-04-12T23:06:13.786Z,0.57
2023-04-12T23:11:15.183Z,0.50
2023-04-12T23:16:16.924Z,0.52
2023-04-12T23:21:18.676Z,0.60
2023-04-12T23:26:20.273Z,0.30
2023-04-12T23:31:21.788Z,0.50
2023-04-12T23:36:25.724Z,0.30
2023-04-12T23:41:31.852Z,0.40
2023-04-12T23:46:33.392Z,0.30
2023-04-12T23:51:34.819Z,0.40
2023-04-12T23:56:36.387Z,0.50
